createdAt,value
2019-03-11T00:00:15.743Z,47.44
2019-03-11T00:02:46.199Z,47.31
2019-03-11T00:05:16.751Z,47.36
2019-03-11T00:07:47.180Z,46.15
2019-03-11T00:10:17.532Z,47.00
2019-03-11T00:12:47.936Z,47.23
2019-03-11T00:15:18.317Z,48.45
2019-03-11T00:17:48.739Z,48.01
2019-03-11T00:20:19.254Z,47.90
2019-03-11T00:22:49.695Z,47.89
2019-03-11T00:25:20.176Z,47.75
2019-03-11T00:27:50.646Z,47.95
2019-03-11T00:30:21.067Z,48.33
2019-03-11T00:32:51.581Z,48.91
2019-03-11T00:35:22.053Z,48.90
2019-03-11T00:37:52.560Z,48.34
2019-03-11T00:40:22.982Z,48.95
2019-03-11T00:42:53.466Z,49.03
2019-03-11T00:45:24.462Z,48.54
2019-03-11T00:48:01.971Z,48.56
2019-03-11T00:50:27.280Z,49.20
2019-03-11T00:52:57.690Z,50.26
2019-03-11T00:55:28.195Z,51.02
2019-03-11T00:57:58.653Z,51.34
2019-03-11T01:00:33.271Z,51.31
2019-03-11T01:03:03.805Z,51.81
2019-03-11T01:05:34.231Z,52.08
2019-03-11T01:08:04.749Z,52.75
2019-03-11T01:10:35.107Z,52.78
2019-03-11T01:13:05.538Z,53.03
2019-03-11T01:15:36.009Z,52.91
2019-03-11T01:18:06.484Z,53.60
2019-03-11T01:20:36.907Z,54.06
2019-03-11T01:23:07.306Z,54.32
2019-03-11T01:25:37.713Z,54.47
2019-03-11T01:28:08.209Z,55.18
2019-03-11T01:30:38.650Z,55.53
2019-03-11T01:33:09.066Z,55.55
2019-03-11T01:35:39.561Z,55.98
2019-03-11T01:38:09.988Z,56.74
2019-03-11T01:40:40.298Z,56.31
2019-03-11T01:43:10.704Z,56.84
2019-03-11T01:45:41.100Z,56.84
2019-03-11T01:48:11.558Z,56.47
2019-03-11T01:50:41.915Z,57.15
2019-03-11T01:53:12.343Z,57.23
2019-03-11T01:55:42.793Z,57.82
2019-03-11T01:58:13.049Z,58.27
2019-03-11T02:00:43.493Z,58.36
2019-03-11T02:03:13.954Z,58.00
2019-03-11T02:05:44.353Z,57.87
2019-03-11T02:08:14.804Z,57.61
2019-03-11T02:10:45.103Z,56.69
2019-03-11T02:13:15.511Z,56.07
2019-03-11T02:15:46.005Z,54.87
2019-03-11T02:18:16.457Z,55.04
2019-03-11T02:20:46.808Z,54.25
2019-03-11T02:23:17.267Z,53.63
2019-03-11T02:25:47.709Z,53.18
2019-03-11T02:28:18.231Z,52.61
2019-03-11T02:30:48.663Z,52.97
2019-03-11T02:33:18.960Z,52.45
2019-03-11T02:35:49.454Z,51.64
2019-03-11T02:38:19.792Z,51.57
2019-03-11T02:40:50.235Z,52.57
2019-03-11T02:43:20.611Z,52.29
2019-03-11T02:45:51.121Z,52.48
2019-03-11T02:48:21.457Z,52.33
2019-03-11T02:50:51.874Z,52.43
2019-03-11T02:53:22.358Z,52.77
2019-03-11T02:55:52.654Z,52.70
2019-03-11T02:58:22.949Z,52.79
2019-03-11T03:01:03.906Z,53.47
2019-03-11T03:03:42.196Z,54.02
2019-03-11T03:06:15.452Z,53.89
2019-03-11T03:08:45.939Z,53.89
2019-03-11T03:11:16.378Z,53.37
2019-03-11T03:13:46.696Z,53.94
2019-03-11T03:16:17.084Z,53.88
2019-03-11T03:18:47.574Z,54.04
2019-03-11T03:21:18.160Z,53.13
2019-03-11T03:23:48.533Z,53.20
2019-03-11T03:26:18.966Z,53.00
2019-03-11T03:28:49.445Z,52.60
2019-03-11T03:31:19.973Z,52.73
2019-03-11T03:33:50.411Z,51.76
2019-03-11T03:36:20.733Z,52.03
2019-03-11T03:38:51.218Z,52.38
2019-03-11T03:41:21.569Z,52.20
2019-03-11T03:43:52.004Z,52.14
2019-03-11T03:46:22.449Z,52.19
2019-03-11T03:48:53.028Z,51.87
2019-03-11T03:51:23.693Z,52.32
2019-03-11T03:53:54.024Z,52.26
2019-03-11T03:56:24.440Z,53.11
2019-03-11T03:58:54.917Z,53.09
2019-03-11T04:01:25.426Z,52.77
2019-03-11T04:03:55.859Z,53.16
2019-03-11T04:06:26.210Z,52.90
2019-03-11T04:08:56.723Z,53.03
2019-03-11T04:11:27.080Z,53.49
2019-03-11T04:13:58.340Z,53.53
2019-03-11T04:16:28.789Z,53.71
2019-03-11T04:18:59.077Z,53.96
2019-03-11T04:21:29.537Z,54.50
2019-03-11T04:23:59.968Z,54.28
2019-03-11T04:26:33.698Z,54.23
2019-03-11T04:29:04.153Z,54.11
2019-03-11T04:31:34.543Z,54.23
2019-03-11T04:34:05.037Z,54.20
2019-03-11T04:36:35.360Z,54.24
2019-03-11T04:39:07.138Z,54.68
2019-03-11T04:41:37.487Z,54.33
2019-03-11T04:44:07.943Z,53.87
2019-03-11T04:46:39.255Z,54.63
2019-03-11T04:49:09.614Z,55.09
2019-03-11T04:51:40.030Z,55.21
2019-03-11T04:54:10.479Z,55.52
2019-03-11T04:56:40.898Z,55.49
2019-03-11T04:59:13.723Z,55.00
2019-03-11T05:01:44.284Z,55.15
2019-03-11T05:04:16.236Z,54.25
2019-03-11T05:06:46.593Z,54.18
2019-03-11T05:09:17.161Z,53.85
2019-03-11T05:11:47.618Z,53.68
2019-03-11T05:14:18.028Z,54.35
2019-03-11T05:16:48.389Z,54.40
2019-03-11T05:19:18.726Z,53.60
2019-03-11T05:21:49.205Z,54.03
2019-03-11T05:24:19.633Z,54.10
2019-03-11T05:26:50.109Z,54.68
2019-03-11T05:29:20.560Z,54.26
2019-03-11T05:31:51.034Z,54.73
2019-03-11T05:34:21.470Z,54.96
2019-03-11T05:36:51.955Z,54.72
2019-03-11T05:39:22.415Z,54.78
2019-03-11T05:41:52.764Z,55.86
2019-03-11T05:44:23.247Z,56.43
2019-03-11T05:46:53.652Z,57.00
2019-03-11T05:49:24.029Z,57.09
2019-03-11T05:51:54.343Z,57.49
2019-03-11T05:54:24.756Z,57.46
2019-03-11T05:56:55.204Z,57.39
2019-03-11T05:59:25.692Z,57.48
2019-03-11T06:01:56.003Z,57.87
2019-03-11T06:04:26.337Z,57.44
2019-03-11T06:06:56.729Z,56.97
2019-03-11T06:09:27.207Z,56.18
2019-03-11T06:11:57.688Z,55.87
2019-03-11T06:14:28.164Z,55.75
2019-03-11T06:16:58.677Z,55.85
2019-03-11T06:19:29.110Z,55.65
2019-03-11T06:22:20.888Z,55.52
2019-03-11T06:24:51.280Z,55.14
2019-03-11T06:27:22.427Z,55.20
2019-03-11T06:29:53.269Z,55.16
2019-03-11T06:32:23.610Z,55.16
2019-03-11T06:34:54.081Z,54.58
2019-03-11T06:37:24.548Z,54.59
2019-03-11T06:39:54.880Z,54.06
2019-03-11T06:42:25.311Z,53.75
2019-03-11T06:44:55.755Z,54.27
2019-03-11T06:47:26.295Z,53.61
2019-03-11T06:49:56.778Z,53.22
2019-03-11T06:52:27.249Z,52.76
2019-03-11T06:54:57.710Z,52.96
2019-03-11T06:57:28.191Z,52.34
2019-03-11T06:59:58.769Z,52.31
2019-03-11T07:02:29.136Z,52.93
2019-03-11T07:05:02.101Z,52.10
2019-03-11T07:07:31.581Z,52.04
2019-03-11T07:10:02.007Z,50.53
2019-03-11T07:12:32.381Z,50.76
2019-03-11T07:15:02.844Z,50.48
2019-03-11T07:17:33.325Z,51.24
2019-03-11T07:20:03.903Z,51.85
2019-03-11T07:22:34.242Z,53.51
2019-03-11T07:25:04.914Z,53.71
2019-03-11T07:27:35.305Z,54.74
2019-03-11T07:30:07.010Z,55.37
2019-03-11T07:32:37.481Z,55.06
2019-03-11T07:35:09.489Z,55.93
2019-03-11T07:37:39.939Z,54.84
2019-03-11T07:40:10.562Z,53.42
2019-03-11T07:42:40.971Z,52.91
2019-03-11T07:45:11.979Z,53.49
2019-03-11T07:47:42.360Z,53.89
2019-03-11T07:50:13.347Z,53.54
2019-03-11T07:52:43.733Z,53.28
2019-03-11T07:55:14.294Z,53.21
2019-03-11T07:57:44.856Z,53.21
2019-03-11T08:00:15.424Z,52.59
2019-03-11T08:02:45.990Z,53.36
2019-03-11T08:05:16.580Z,52.60
2019-03-11T08:07:44.405Z,52.29
2019-03-11T08:10:14.964Z,52.66
2019-03-11T08:12:45.332Z,52.39
2019-03-11T08:15:15.771Z,52.97
2019-03-11T08:17:46.307Z,52.52
2019-03-11T08:20:17.274Z,52.31
2019-03-11T08:22:47.594Z,52.11
2019-03-11T08:25:18.007Z,52.13
2019-03-11T08:27:48.458Z,52.52
2019-03-11T08:30:19.525Z,52.96
2019-03-11T08:32:50.019Z,52.88
2019-03-11T08:35:20.498Z,52.77
2019-03-11T08:37:50.931Z,53.28
2019-03-11T08:40:21.425Z,53.72
2019-03-11T08:42:51.828Z,53.98
2019-03-11T08:45:22.192Z,53.67
2019-03-11T08:47:52.443Z,54.38
2019-03-11T08:50:22.755Z,54.83
2019-03-11T08:52:53.169Z,55.31
2019-03-11T08:55:23.618Z,55.42
2019-03-11T08:57:54.020Z,55.19
2019-03-11T09:00:24.686Z,55.70
2019-03-11T09:02:55.106Z,55.92
2019-03-11T09:05:25.595Z,55.95
2019-03-11T09:07:56.031Z,58.58
2019-03-11T09:10:26.628Z,69.78
2019-03-11T09:12:57.113Z,73.93
2019-03-11T09:15:27.537Z,79.41
2019-03-11T09:17:57.983Z,82.70
2019-03-11T09:20:28.420Z,86.73
2019-03-11T09:22:58.812Z,89.46
2019-03-11T09:25:29.214Z,90.84
2019-03-11T09:27:59.568Z,89.93
2019-03-11T09:30:30.005Z,89.58
2019-03-11T09:33:00.353Z,91.27
2019-03-11T09:35:30.681Z,91.64
2019-03-11T09:38:03.696Z,89.62
2019-03-11T09:40:33.058Z,90.98
2019-03-11T09:43:03.494Z,92.20
2019-03-11T09:45:33.931Z,92.40
2019-03-11T09:48:04.400Z,90.50
2019-03-11T09:50:34.938Z,90.79
2019-03-11T09:53:05.467Z,86.85
2019-03-11T09:55:35.999Z,90.80
2019-03-11T09:58:06.615Z,90.77
2019-03-11T10:00:37.072Z,89.76
2019-03-11T10:03:07.735Z,88.62
2019-03-11T10:05:38.082Z,90.10
2019-03-11T10:08:10.754Z,88.71
2019-03-11T10:10:40.676Z,88.73
2019-03-11T10:13:11.060Z,84.76
2019-03-11T10:15:41.572Z,86.88
2019-03-11T10:18:11.988Z,88.13
2019-03-11T10:20:42.398Z,85.37
2019-03-11T10:23:12.934Z,86.77
2019-03-11T10:25:43.326Z,86.72
2019-03-11T10:28:13.722Z,85.99
2019-03-11T10:30:44.201Z,86.70
2019-03-11T10:33:14.644Z,85.19
2019-03-11T10:35:45.175Z,82.96
2019-03-11T10:38:15.647Z,82.35
2019-03-11T10:40:46.131Z,83.11
2019-03-11T10:43:16.482Z,82.50
2019-03-11T10:45:46.764Z,79.66
2019-03-11T10:48:17.290Z,75.18
2019-03-11T10:50:47.760Z,78.55
2019-03-11T10:53:18.274Z,72.05
2019-03-11T10:55:48.673Z,64.39
2019-03-11T10:58:19.096Z,70.09
2019-03-11T11:00:49.432Z,72.61
2019-03-11T11:03:19.852Z,66.64
2019-03-11T11:05:50.254Z,68.42
2019-03-11T11:08:20.683Z,70.19
2019-03-11T11:10:51.123Z,68.84
2019-03-11T11:13:21.556Z,71.08
2019-03-11T11:15:51.930Z,72.22
2019-03-11T11:18:22.215Z,67.72
2019-03-11T11:20:52.604Z,70.31
2019-03-11T11:23:22.964Z,71.64
2019-03-11T11:25:53.387Z,71.19
2019-03-11T11:28:23.813Z,71.64
2019-03-11T11:30:54.279Z,68.15
2019-03-11T11:33:24.719Z,71.08
2019-03-11T11:35:55.150Z,71.17
2019-03-11T11:38:25.579Z,72.63
2019-03-11T11:40:55.973Z,75.22
2019-03-11T11:43:26.524Z,75.98
2019-03-11T11:45:56.936Z,76.05
2019-03-11T11:48:27.300Z,79.01
2019-03-11T11:50:57.728Z,75.06
2019-03-11T11:53:28.286Z,78.91
2019-03-11T11:55:58.662Z,80.51
2019-03-11T11:58:29.080Z,80.69
2019-03-11T12:00:59.524Z,79.76
2019-03-11T12:03:29.933Z,75.99
2019-03-11T12:06:00.306Z,71.14
2019-03-11T12:08:30.643Z,70.89
2019-03-11T12:11:00.915Z,68.58
2019-03-11T12:13:31.390Z,69.24
2019-03-11T12:16:01.814Z,64.50
2019-03-11T12:18:32.284Z,70.08
2019-03-11T12:21:02.798Z,73.39
2019-03-11T12:23:33.221Z,67.60
2019-03-11T12:26:03.629Z,67.29
2019-03-11T12:28:34.080Z,56.01
2019-03-11T12:31:04.651Z,67.46
2019-03-11T12:33:35.167Z,65.63
2019-03-11T12:36:05.667Z,70.46
2019-03-11T12:38:36.093Z,63.01
2019-03-11T12:41:06.616Z,59.81
2019-03-11T12:43:37.079Z,61.01
2019-03-11T12:46:07.669Z,63.82
2019-03-11T12:48:38.013Z,69.06
2019-03-11T12:51:08.484Z,70.58
2019-03-11T12:53:38.844Z,69.24
2019-03-11T12:56:09.257Z,65.52
2019-03-11T12:58:41.797Z,68.04
2019-03-11T13:01:11.843Z,67.55
2019-03-11T13:03:42.224Z,71.78
2019-03-11T13:06:12.542Z,73.24
2019-03-11T13:08:43.062Z,68.57
2019-03-11T13:11:13.562Z,70.71
2019-03-11T13:13:43.919Z,69.96
2019-03-11T13:16:14.298Z,69.99
2019-03-11T13:18:47.403Z,68.27
2019-03-11T13:21:28.627Z,69.59
2019-03-11T13:23:59.062Z,68.65
2019-03-11T13:26:29.825Z,71.09
2019-03-11T13:29:00.258Z,71.35
2019-03-11T13:31:30.678Z,70.97
2019-03-11T13:34:01.115Z,68.88
2019-03-11T13:36:31.579Z,69.20
2019-03-11T13:39:02.052Z,66.03
2019-03-11T13:41:32.511Z,62.50
2019-03-11T13:44:02.957Z,60.86
2019-03-11T13:46:33.429Z,60.93
2019-03-11T13:49:03.827Z,56.06
2019-03-11T13:51:34.282Z,57.16
2019-03-11T13:54:04.727Z,54.24
2019-03-11T13:56:35.098Z,57.96
2019-03-11T13:59:05.577Z,57.91
2019-03-11T14:01:35.983Z,57.28
2019-03-11T14:04:06.420Z,58.21
2019-03-11T14:06:36.827Z,54.80
2019-03-11T14:09:10.320Z,52.13
2019-03-11T14:11:40.732Z,47.85
2019-03-11T14:14:11.213Z,48.28
2019-03-11T14:16:41.679Z,46.30
2019-03-11T14:19:12.048Z,47.43
2019-03-11T14:21:42.420Z,45.95
2019-03-11T14:24:12.857Z,46.38
2019-03-11T14:26:43.226Z,47.38
2019-03-11T14:29:13.688Z,48.08
2019-03-11T14:31:44.137Z,47.95
2019-03-11T14:34:14.564Z,46.65
2019-03-11T14:36:45.114Z,47.58
2019-03-11T14:39:15.464Z,47.57
2019-03-11T14:41:45.724Z,48.43
2019-03-11T14:44:16.077Z,50.19
2019-03-11T14:46:46.472Z,51.68
2019-03-11T14:49:16.945Z,53.73
2019-03-11T14:51:47.332Z,56.02
2019-03-11T14:54:17.654Z,55.65
2019-03-11T14:56:48.064Z,54.40
2019-03-11T14:59:18.535Z,54.77
2019-03-11T15:01:49.035Z,54.78
2019-03-11T15:04:19.543Z,53.44
2019-03-11T15:06:50.011Z,53.85
2019-03-11T15:09:20.426Z,53.54
2019-03-11T15:11:50.870Z,54.54
2019-03-11T15:14:21.174Z,54.72
2019-03-11T15:16:51.674Z,53.40
2019-03-11T15:19:22.136Z,53.89
2019-03-11T15:21:52.618Z,54.79
2019-03-11T15:24:23.100Z,53.89
2019-03-11T15:26:53.571Z,54.37
2019-03-11T15:29:23.971Z,53.83
2019-03-11T15:31:54.452Z,54.40
2019-03-11T15:34:24.911Z,53.76
2019-03-11T15:36:56.757Z,53.77
2019-03-11T15:39:27.202Z,54.65
2019-03-11T15:41:57.717Z,54.74
2019-03-11T15:44:28.215Z,57.36
2019-03-11T15:46:58.662Z,58.18
2019-03-11T15:49:29.221Z,58.17
2019-03-11T15:51:59.725Z,59.52
2019-03-11T15:54:30.023Z,57.58
2019-03-11T15:57:00.489Z,57.17
2019-03-11T15:59:30.952Z,55.09
2019-03-11T16:02:01.413Z,54.44
2019-03-11T16:04:31.793Z,53.94
2019-03-11T16:07:02.147Z,53.03
2019-03-11T16:09:32.609Z,53.05
2019-03-11T16:12:03.056Z,52.63
2019-03-11T16:14:33.474Z,51.94
2019-03-11T16:17:04.113Z,54.12
2019-03-11T16:19:34.650Z,57.45
2019-03-11T16:22:05.077Z,59.39
2019-03-11T16:24:35.444Z,59.86
2019-03-11T16:27:05.836Z,59.71
2019-03-11T16:29:36.305Z,59.99
2019-03-11T16:32:06.794Z,58.97
2019-03-11T16:34:37.198Z,58.09
2019-03-11T16:37:07.531Z,56.82
2019-03-11T16:39:37.848Z,56.53
2019-03-11T16:42:08.197Z,57.57
2019-03-11T16:44:38.587Z,55.90
2019-03-11T16:47:08.985Z,57.17
2019-03-11T16:49:39.426Z,59.05
2019-03-11T16:52:09.958Z,59.35
2019-03-11T16:54:40.283Z,59.95
2019-03-11T16:57:10.820Z,60.08
2019-03-11T16:59:41.147Z,59.92
2019-03-11T17:02:11.475Z,60.02
2019-03-11T17:04:41.973Z,60.10
2019-03-11T17:07:12.404Z,60.01
2019-03-11T17:09:42.875Z,61.08
2019-03-11T17:12:13.389Z,66.15
2019-03-11T17:14:43.786Z,71.64
2019-03-11T17:17:14.282Z,74.00
2019-03-11T17:19:44.780Z,73.78
2019-03-11T17:22:15.306Z,73.36
2019-03-11T17:24:45.633Z,72.66
2019-03-11T17:27:16.105Z,72.59
2019-03-11T17:29:46.683Z,72.08
2019-03-11T17:32:17.172Z,70.81
2019-03-11T17:34:47.579Z,70.84
2019-03-11T17:37:18.085Z,68.97
2019-03-11T17:39:48.788Z,69.13
2019-03-11T17:42:19.200Z,69.07
2019-03-11T17:44:50.053Z,70.05
2019-03-11T17:47:21.648Z,67.84
2019-03-11T17:49:52.088Z,67.99
2019-03-11T17:52:22.404Z,68.17
2019-03-11T17:54:52.874Z,67.31
2019-03-11T17:57:23.408Z,67.39
2019-03-11T17:59:53.765Z,67.53
2019-03-11T18:02:24.183Z,66.93
2019-03-11T18:04:54.536Z,68.00
2019-03-11T18:07:24.956Z,69.01
2019-03-11T18:09:55.408Z,68.10
2019-03-11T18:12:25.915Z,67.59
2019-03-11T18:14:56.399Z,67.02
2019-03-11T18:17:26.850Z,67.01
2019-03-11T18:19:57.186Z,65.63
2019-03-11T18:22:27.823Z,66.07
2019-03-11T18:24:58.217Z,65.78
2019-03-11T18:27:28.774Z,65.33
2019-03-11T18:29:59.099Z,65.64
2019-03-11T18:32:29.577Z,65.97
2019-03-11T18:35:00.084Z,65.73
2019-03-11T18:37:30.606Z,66.43
2019-03-11T18:40:00.934Z,66.40
2019-03-11T18:42:31.449Z,66.24
2019-03-11T18:45:01.867Z,67.02
2019-03-11T18:47:32.323Z,66.60
2019-03-11T18:50:02.728Z,68.27
2019-03-11T18:52:33.274Z,67.21
2019-03-11T18:55:03.724Z,66.90
2019-03-11T18:57:34.169Z,67.44
2019-03-11T19:00:05.309Z,68.15
2019-03-11T19:02:35.674Z,68.53
2019-03-11T19:05:07.545Z,66.98
2019-03-11T19:07:39.128Z,67.21
2019-03-11T19:10:10.703Z,68.19
2019-03-11T19:12:41.205Z,68.08
2019-03-11T19:15:14.051Z,67.95
2019-03-11T19:17:44.510Z,67.50
2019-03-11T19:20:17.398Z,66.88
2019-03-11T19:22:47.852Z,66.62
2019-03-11T19:25:18.627Z,66.83
2019-03-11T19:27:50.458Z,66.47
2019-03-11T19:30:21.379Z,67.57
2019-03-11T19:32:52.191Z,67.37
2019-03-11T19:35:22.816Z,66.70
2019-03-11T19:37:54.480Z,66.47
2019-03-11T19:40:25.141Z,65.88
2019-03-11T19:42:55.652Z,66.57
2019-03-11T19:45:25.971Z,66.48
2019-03-11T19:47:56.466Z,66.69
2019-03-11T19:50:26.878Z,66.94
2019-03-11T19:52:59.366Z,67.71
2019-03-11T19:55:29.440Z,67.63
2019-03-11T19:57:59.771Z,67.55
2019-03-11T20:00:30.214Z,67.47
2019-03-11T20:03:00.712Z,67.39
2019-03-11T20:05:31.336Z,67.80
2019-03-11T20:08:01.853Z,67.21
2019-03-11T20:10:33.477Z,68.16
2019-03-11T20:13:03.905Z,68.28
2019-03-11T20:15:34.482Z,67.62
2019-03-11T20:18:04.987Z,67.54
2019-03-11T20:20:35.350Z,68.01
2019-03-11T20:23:05.725Z,67.45
2019-03-11T20:25:36.342Z,68.33
2019-03-11T20:28:06.762Z,68.17
2019-03-11T20:30:37.282Z,68.29
2019-03-11T20:33:07.865Z,68.17
2019-03-11T20:35:38.236Z,67.73
2019-03-11T20:38:08.730Z,68.32
2019-03-11T20:40:39.123Z,67.96
2019-03-11T20:43:09.605Z,68.73
2019-03-11T20:45:40.045Z,68.32
2019-03-11T20:48:10.632Z,67.97
2019-03-11T20:50:42.330Z,67.94
2019-03-11T20:53:12.982Z,67.63
2019-03-11T20:55:43.470Z,66.91
2019-03-11T20:58:13.825Z,67.71
2019-03-11T21:00:44.325Z,67.48
2019-03-11T21:03:14.724Z,67.42
2019-03-11T21:05:45.745Z,67.17
2019-03-11T21:08:16.530Z,66.94
2019-03-11T21:10:47.045Z,67.06
2019-03-11T21:13:17.669Z,67.25
2019-03-11T21:15:48.225Z,67.33
2019-03-11T21:18:18.483Z,67.09
2019-03-11T21:20:48.973Z,66.77
2019-03-11T21:23:19.764Z,66.61
2019-03-11T21:25:50.235Z,66.86
2019-03-11T21:28:20.741Z,67.83
2019-03-11T21:30:51.337Z,67.56
2019-03-11T21:33:21.922Z,67.29
2019-03-11T21:35:52.552Z,68.21
2019-03-11T21:38:23.286Z,66.42
2019-03-11T21:40:53.714Z,65.65
2019-03-11T21:43:24.818Z,65.89
2019-03-11T21:45:55.282Z,65.73
2019-03-11T21:48:25.874Z,66.29
2019-03-11T21:50:56.417Z,65.99
2019-03-11T21:53:27.194Z,66.46
2019-03-11T21:55:57.551Z,66.20
2019-03-11T21:58:28.093Z,65.92
2019-03-11T22:00:58.486Z,66.48
2019-03-11T22:03:28.929Z,65.69
2019-03-11T22:05:59.299Z,66.18
2019-03-11T22:08:29.784Z,66.05
2019-03-11T22:11:00.211Z,65.38
2019-03-11T22:13:30.682Z,65.53
2019-03-11T22:16:01.272Z,65.80
2019-03-11T22:18:31.836Z,65.57
2019-03-11T22:21:02.334Z,65.34
2019-03-11T22:23:32.899Z,65.71
2019-03-11T22:26:03.289Z,65.95
2019-03-11T22:28:33.660Z,65.83
2019-03-11T22:31:04.107Z,65.81
2019-03-11T22:33:35.024Z,66.21
2019-03-11T22:36:05.664Z,65.82
2019-03-11T22:38:36.084Z,65.85
2019-03-11T22:41:06.585Z,66.17
2019-03-11T22:43:36.917Z,66.09
2019-03-11T22:46:07.501Z,65.94
2019-03-11T22:48:37.973Z,65.23
2019-03-11T22:51:08.329Z,65.20
2019-03-11T22:53:38.869Z,66.14
2019-03-11T22:56:09.292Z,66.77
2019-03-11T22:58:39.748Z,67.83
2019-03-11T23:01:10.871Z,68.35
2019-03-11T23:03:50.205Z,67.10
2019-03-11T23:06:13.591Z,66.36
2019-03-11T23:08:44.001Z,65.94
2019-03-11T23:11:14.487Z,65.50
2019-03-11T23:13:45.014Z,65.40
2019-03-11T23:16:15.393Z,64.91
2019-03-11T23:18:45.842Z,65.45
2019-03-11T23:21:16.257Z,65.40
2019-03-11T23:23:46.815Z,65.16
2019-03-11T23:26:17.288Z,65.91
2019-03-11T23:28:47.605Z,65.49
2019-03-11T23:31:18.073Z,65.10
2019-03-11T23:33:48.561Z,65.52
2019-03-11T23:36:19.433Z,65.70
2019-03-11T23:38:49.825Z,65.83
2019-03-11T23:41:20.321Z,66.29
2019-03-11T23:43:50.736Z,65.71
2019-03-11T23:46:21.158Z,64.93
2019-03-11T23:48:51.508Z,65.07
2019-03-11T23:51:21.931Z,65.32
2019-03-11T23:53:52.282Z,65.12
2019-03-11T23:56:22.567Z,64.07
2019-03-11T23:58:52.970Z,64.60
